Latest Weather Observations for Bedout Island

IDW60801

Issued at 10:32 am WST Monday 6 July 2015 (issued every 30 minutes, with the page automatically refreshed every 10 minutes)

About weather observations | Map of weather stations | Latest weather observations for WA | Other Formats
Station Details ID: 004100 Name: BEDOUT ISLAND Lat: -19.59 Lon: 119.10 Height: 8.6 m
Data from the previous 72 hours. | See also: Recent months for locations in Western Australia
Date/Time
WST
Temp
°C
App
Temp
°C
Dew
Point
Rel
Hum
%
Delta-T
°C
Wind Press
QNH
hPa
Press
MSL
hPa
Rain
since 9 am
mm
Dir
 
Spd
km/h
Gust
km/h
Spd
kts
Gust
kts
06/10:30am 23.8 19.7 13.9 54 5.8 E 28 33 15 18 1017.2 - -
06/10:00am 23.3 19.5 13.5 54 5.7 ESE 26 32 14 17 1017.5 - -
06/09:30am 23.2 19.2 13.1 53 5.8 SE 26 30 14 16 1017.6 - -
06/09:00am 22.6 18.6 13.1 55 5.5 ESE 26 30 14 16 1017.5 1017.4 -
06/08:30am 22.0 17.9 12.8 56 5.2 ESE 26 30 14 16 1017.3 - -
06/08:00am 21.4 17.9 13.3 60 4.6 ESE 24 28 13 15 1017.0 - -
06/07:30am 21.2 16.7 12.6 58 4.9 ESE 28 32 15 17 1016.7 - -
06/07:00am 20.8 15.8 12.2 58 4.8 ESE 30 33 16 18 1016.5 - -
06/06:30am 20.4 15.5 12.4 60 4.5 SE 30 32 16 17 1016.2 - -
06/06:00am 20.8 16.7 12.8 60 4.5 ESE 26 30 14 16 1015.9 1015.8 -
06/05:30am 20.9 16.2 12.1 57 4.9 ESE 28 30 15 16 1015.7 - -
06/05:00am 20.3 17.0 14.0 67 3.6 SE 24 30 13 16 1015.7 - -
06/04:30am 20.1 16.1 13.1 64 4.0 SE 26 30 14 16 1015.7 - -
06/04:00am 20.3 16.3 11.8 58 4.7 SE 24 28 13 15 1015.6 - -
06/03:30am 20.8 16.2 10.9 53 5.4 SE 26 32 14 17 1015.6 - -
06/03:00am 20.7 16.4 10.8 53 5.4 SSE 24 30 13 16 1015.7 1015.6 -
06/02:30am 20.4 15.3 10.5 53 5.4 S 28 32 15 17 1015.9 - -
06/02:00am 20.2 16.1 12.7 62 4.2 S 26 30 14 16 1016.0 - -
06/01:30am 20.3 16.9 14.7 70 3.3 S 26 30 14 16 1016.2 - -
06/01:00am 20.3 16.5 14.7 70 3.3 S 28 30 15 16 1016.3 - -
06/12:30am 20.6 17.4 13.1 62 4.3 S 22 26 12 14 1016.5 - -
06/12:00am 20.3 17.8 14.0 67 3.6 S 20 24 11 13 1016.5 1016.4 -
 
Date/Time
WST
Temp
°C
App
Temp
°C
Dew
Point
Rel
Hum
%
Delta-T
°C
Wind Press
QNH
hPa
Press
MSL
hPa
Rain
since 9 am
mm
Dir
 
Spd
km/h
Gust
km/h
Spd
kts
Gust
kts
05/11:30pm 19.9 17.7 13.4 66 3.7 S 17 20 9 11 1016.5 - -
05/11:00pm 19.7 17.8 14.1 70 3.2 S 17 19 9 10 1016.6 - -
05/10:30pm 19.6 18.6 13.5 68 3.5 S 11 13 6 7 1016.5 - -
05/10:00pm 19.8 21.2 14.4 71 3.1 CALM 0 4 0 2 1016.6 - -
05/09:30pm 19.6 20.9 14.0 70 3.2 CALM 0 4 0 2 1016.7 - -
05/09:00pm 19.7 18.9 14.1 70 3.2 S 11 13 6 7 1016.7 1016.6 -
05/08:30pm 20.9 20.2 13.1 61 4.4 SE 9 9 5 5 1016.8 - -
05/08:00pm 21.2 20.1 10.7 51 5.7 ENE 7 9 4 5 1016.7 - -
05/07:30pm 20.5 18.9 11.7 57 4.9 ENE 11 13 6 7 1016.5 - -
05/07:00pm 21.0 18.9 11.3 54 5.4 ENE 13 17 7 9 1016.2 - -
05/06:30pm 21.7 18.7 10.8 50 6.0 ENE 17 17 9 9 1016.0 - -
05/06:00pm 22.2 18.6 9.7 45 6.7 ENE 19 20 10 11 1016.0 1015.9 -
05/05:30pm 22.5 18.8 9.3 43 7.1 ENE 19 22 10 12 1015.8 - -
05/05:00pm 23.1 18.7 9.1 41 7.5 ENE 22 26 12 14 1015.7 - -
05/04:30pm 23.7 18.7 8.2 37 8.2 ENE 24 30 13 16 1015.6 - -
05/04:00pm 24.1 18.6 7.7 35 8.6 ENE 26 30 14 16 1015.6 - -
05/03:30pm 24.3 18.1 6.1 31 9.3 ENE 28 32 15 17 1015.7 - -
05/03:00pm 24.4 18.9 9.2 38 8.2 ENE 28 32 15 17 1015.9 1015.8 -
05/02:30pm 24.6 20.4 11.2 43 7.5 ENE 24 28 13 15 1016.2 - -
05/02:00pm 24.7 21.0 12.6 47 7.0 ENE 24 28 13 15 1016.5 - -
05/01:30pm 25.0 21.4 13.2 48 6.9 E 24 28 13 15 1016.7 - -
05/01:00pm 24.7 21.5 12.0 45 7.2 E 20 24 11 13 1017.2 - -
05/12:30pm 24.8 21.2 13.0 47 6.8 E 24 28 13 15 1017.6 - -
05/12:00pm 24.8 20.7 11.4 43 7.5 E 24 26 13 14 1018.2 1018.1 -
05/11:30am 24.7 21.5 13.0 48 6.8 E 22 26 12 14 1018.7 - -
05/11:00am 24.1 20.5 13.0 50 6.4 E 24 30 13 16 1018.9 - -
05/10:30am 23.8 19.4 12.8 50 6.3 E 28 32 15 17 1019.0 - -
05/10:00am 23.6 20.0 14.3 56 5.5 ESE 26 32 14 17 1019.3 - -
05/09:30am 23.2 19.1 13.9 56 5.4 ESE 28 30 15 16 1019.5 - -
05/09:00am 22.6 17.9 13.1 55 5.4 ESE 30 35 16 19 1019.4 1019.3 -
05/08:30am 21.9 16.5 12.2 54 5.5 ESE 32 35 17 19 1019.2 - -
05/08:00am 21.5 16.1 12.1 55 5.3 ESE 32 35 17 19 1018.9 - -
05/07:30am 21.2 15.5 11.8 55 5.2 ESE 33 39 18 21 1018.4 - -
05/07:00am 20.8 14.5 10.9 53 5.4 ESE 35 39 19 21 1018.0 - -
05/06:30am 20.5 14.9 12.0 58 4.7 ESE 33 37 18 20 1017.7 - -
05/06:00am 20.7 15.4 12.4 59 4.7 SE 32 35 17 19 1017.5 1017.4 -
05/05:30am 20.9 16.3 13.4 62 4.3 SE 30 33 16 18 1017.3 - -
05/05:00am 21.3 16.8 13.7 62 4.4 SE 30 33 16 18 1017.0 - -
05/04:30am 21.6 16.7 12.7 57 5.1 ESE 30 33 16 18 1017.0 - -
05/04:00am 21.5 16.8 13.2 59 4.8 ESE 30 33 16 18 1016.9 - -
05/03:30am 21.9 17.2 13.3 58 4.9 ESE 30 33 16 18 1016.9 - -
05/03:00am 22.2 17.5 13.3 57 5.1 ESE 30 35 16 19 1016.9 1016.8 -
05/02:30am 22.2 17.2 12.2 53 5.6 ESE 30 33 16 18 1016.9 - -
05/02:00am 22.4 17.5 12.6 54 5.6 ESE 30 33 16 18 1017.1 - -
05/01:30am 22.6 18.0 12.3 52 5.8 ESE 28 32 15 17 1017.2 - -
05/01:00am 22.2 18.5 12.7 55 5.4 ESE 24 28 13 15 1017.3 - -
05/12:30am 21.7 18.1 12.0 54 5.4 SE 22 26 12 14 1017.3 - -
05/12:00am 20.8 18.9 14.2 66 3.8 SSE 17 20 9 11 1017.4 1017.3 -
 
Date/Time
WST
Temp
°C
App
Temp
°C
Dew
Point
Rel
Hum
%
Delta-T
°C
Wind Press
QNH
hPa
Press
MSL
hPa
Rain
since 9 am
mm
Dir
 
Spd
km/h
Gust
km/h
Spd
kts
Gust
kts
04/11:30pm 20.6 19.3 15.8 74 2.9 S 17 20 9 11 1017.4 - -
04/11:00pm 20.6 19.5 16.4 77 2.5 SSW 17 20 9 11 1017.4 - -
04/10:30pm 20.5 19.5 16.5 78 2.4 SSW 17 17 9 9 1017.5 - -
04/10:00pm 20.3 19.6 16.5 79 2.3 ENE 15 15 8 8 1017.6 - -
04/09:30pm 20.3 19.3 16.5 79 2.3 ENE 17 17 9 9 1017.6 - -
04/09:00pm 19.8 19.7 16.1 79 2.2 ENE 11 13 6 7 1017.5 1017.4 -
04/08:30pm 19.9 19.5 16.2 79 2.2 ENE 13 13 7 7 1017.3 - -
04/08:00pm 20.1 19.7 16.3 79 2.3 ENE 13 15 7 8 1017.1 - -
04/07:30pm 20.1 19.5 15.7 76 2.6 ENE 13 17 7 9 1017.0 - -
04/07:00pm 20.7 20.5 15.7 73 3.0 ENE 11 15 6 8 1016.8 - -
04/06:30pm 21.1 21.1 15.2 69 3.5 ENE 9 9 5 5 1016.4 - -
04/06:00pm 21.0 20.4 14.6 67 3.7 ENE 11 11 6 6 1016.2 1016.1 -
04/05:30pm 22.1 21.3 14.0 60 4.7 ENE 11 11 6 6 1016.1 - -
04/05:00pm 23.4 22.5 12.7 51 6.1 ENE 9 11 5 6 1016.0 - -
04/04:30pm 24.2 22.6 12.8 49 6.6 ENE 13 13 7 7 1016.0 - -
04/04:00pm 24.8 22.7 12.4 46 7.1 ENE 15 19 8 10 1016.1 - -
04/03:30pm 25.1 22.3 12.7 46 7.2 ENE 19 20 10 11 1016.2 - -
04/03:00pm 25.4 22.7 12.9 45 7.2 E 19 22 10 12 1016.2 1016.1 -
04/02:30pm 25.7 22.9 12.5 44 7.6 E 19 22 10 12 1016.2 - -
04/02:00pm 25.9 22.9 12.7 44 7.7 E 20 24 11 13 1016.6 - -
04/01:30pm 25.7 21.8 10.7 39 8.4 E 22 26 12 14 1016.8 - -
04/01:00pm 25.3 21.5 12.5 45 7.4 E 24 28 13 15 1017.3 - -
04/12:30pm 24.9 20.1 11.5 43 7.6 E 28 32 15 17 1017.7 - -
04/12:00pm 24.9 19.5 12.2 45 7.3 E 32 35 17 19 1018.3 1018.2 -
04/11:30am 24.5 20.1 14.0 52 6.2 ESE 30 32 16 17 1018.7 - -
04/11:00am 24.2 19.0 13.4 51 6.3 ESE 33 39 18 21 1018.9 - -
04/10:30am 24.0 18.7 12.6 49 6.5 ESE 32 37 17 20 1019.1 - -
04/10:00am 23.9 19.1 14.0 54 5.8 ESE 32 35 17 19 1019.3 - -
04/09:30am 23.5 18.5 13.4 53 5.9 ESE 32 37 17 20 1019.4 - -
04/09:00am 23.2 17.3 11.3 47 6.6 ESE 33 39 18 21 1019.4 1019.3 -
04/08:30am 22.8 16.6 11.5 49 6.3 ESE 35 43 19 23 1019.4 - -
04/08:00am 22.3 16.5 12.8 55 5.4 ESE 35 41 19 22 1019.2 - -
04/07:30am 21.7 16.9 12.8 57 5.1 ESE 30 33 16 18 1018.8 - -
04/07:00am 21.1 16.4 13.3 61 4.5 ESE 30 35 16 19 1018.5 - -
04/06:30am 20.6 16.5 13.8 65 3.9 ESE 28 32 15 17 1018.3 - -
04/06:00am 20.8 17.1 14.0 65 3.9 ESE 26 32 14 17 1018.0 1017.9 -
04/05:30am 21.3 16.5 13.0 59 4.7 ESE 30 33 16 18 1017.8 - -
04/05:00am 21.8 16.3 12.4 55 5.3 ESE 33 37 18 20 1017.6 - -
04/04:30am 22.0 16.7 13.1 57 5.1 ESE 33 37 18 20 1017.5 - -
04/04:00am 22.2 16.8 12.7 55 5.4 ESE 33 37 18 20 1017.5 - -
04/03:30am 22.5 15.9 12.7 54 5.6 ESE 39 44 21 24 1017.4 - -
04/03:00am 22.7 17.2 13.7 56 5.2 SE 35 41 19 22 1017.3 1017.2 -
04/02:30am 23.1 16.0 12.1 50 6.2 ESE 41 46 22 25 1017.3 - -
04/02:00am 22.9 17.4 13.7 56 5.4 SE 35 41 19 22 1017.5 - -
04/01:30am 22.6 17.6 13.4 56 5.3 SE 32 35 17 19 1017.6 - -
04/01:00am 22.6 18.3 14.4 60 4.8 SE 30 35 16 19 1017.8 - -
04/12:30am 22.8 18.1 13.3 55 5.5 SE 30 33 16 18 1017.9 - -
04/12:00am 23.0 18.8 13.5 55 5.5 SE 28 32 15 17 1017.9 1017.8 -
 
Date/Time
WST
Temp
°C
App
Temp
°C
Dew
Point
Rel
Hum
%
Delta-T
°C
Wind Press
QNH
hPa
Press
MSL
hPa
Rain
since 9 am
mm
Dir
 
Spd
km/h
Gust
km/h
Spd
kts
Gust
kts
03/11:30pm 23.1 19.7 14.7 59 5.0 SE 26 30 14 16 1018.0 - -
03/11:00pm 22.8 19.3 14.6 60 4.8 SE 26 32 14 17 1018.2 - -
03/10:30pm 22.7 19.1 13.2 55 5.5 SSE 24 28 13 15 1018.2 - -
03/10:00pm 22.4 19.5 14.0 59 4.9 S 22 26 12 14 1018.3 - -
03/09:30pm 22.2 20.1 14.6 62 4.5 S 19 22 10 12 1018.2 - -
03/09:00pm 22.1 20.3 15.5 66 3.9 S 19 20 10 11 1018.2 1018.1 -
03/08:30pm 21.7 20.5 16.0 70 3.4 S 17 20 9 11 1018.1 - -
03/08:00pm 22.0 20.4 16.1 69 3.6 S 19 20 10 11 1017.9 - -
03/07:30pm 21.8 20.4 16.5 72 3.2 SSW 19 22 10 12 1017.7 - -
03/07:00pm 21.3 20.4 16.9 76 2.7 SSW 17 19 9 10 1017.5 - -
03/06:30pm 21.3 20.4 16.9 76 2.7 SSW 17 19 9 10 1017.2 - -
03/06:00pm 21.4 21.2 16.6 74 2.9 SW 13 17 7 9 1017.1 1017.0 -
03/05:30pm 22.2 22.1 16.9 72 3.2 SW 13 15 7 8 1016.9 - -
03/05:00pm 24.1 24.7 17.6 67 4.0 S 11 15 6 8 1016.7 - -
03/04:30pm 24.9 24.8 15.0 54 5.9 ENE 9 11 5 6 1016.4 - -
03/04:00pm 25.4 24.6 15.1 53 6.2 ENE 13 15 7 8 1016.3 - -
03/03:30pm 25.7 24.5 15.1 52 6.4 E 15 17 8 9 1016.2 - -
03/03:00pm 25.9 24.1 14.4 49 6.8 E 17 19 9 10 1016.4 1016.3 -
03/02:30pm 26.1 23.7 13.9 47 7.2 E 19 20 10 11 1016.5 - -
03/02:00pm 26.2 23.6 13.3 45 7.6 ESE 19 20 10 11 1016.8 - -
03/01:30pm 26.6 24.3 14.0 46 7.5 E 19 20 10 11 1017.4 - -
03/01:00pm 26.1 22.7 13.6 46 7.4 E 24 26 13 14 1017.7 - -
03/12:30pm 25.8 21.9 13.3 46 7.3 E 26 30 14 16 1018.2 - -
03/12:00pm 25.3 20.4 12.5 45 7.4 E 30 33 16 18 1018.6 1018.5 -
03/11:30am 25.1 19.8 13.0 47 7.0 ESE 33 39 18 21 1019.1 - -
03/11:00am 24.7 18.5 11.3 43 7.5 ESE 35 41 19 22 1019.4 - -

Other Formats:

Comma delimited format used in spreadsheet applications
http://www.bom.gov.au/fwo/IDW60801/IDW60801.94310.axf

JavaScript Object Notation format (JSON) in row-major order
http://www.bom.gov.au/fwo/IDW60801/IDW60801.94310.json